Time;durP1;ratioP1;P1;durP2;ratioP2;P2;SDS_P1;SDS_P2;PMS_P1;PMS_P2;Temp;Humidity;BMP_temperature;BMP_pressure;BME280_temperature;BME280_humidity;BME280_pressure;Samples;Min_cycle;Max_cycle;Signal;HPM_P1;HPM_P2
2024/02/27 00:00:26;;;;;;;;;;;;;;;;;;2211717;67;2638;-17
2024/02/27 00:02:58;;;;;;;;;;;;;;;;;;2209332;59;2795;-17
2024/02/27 00:05:29;;;;;;;;;;;;;;;;;;2211337;66;2430;-17
2024/02/27 00:08:00;;;;;;;;;;;;;;;;;;2212583;67;1973;-18
2024/02/27 00:10:31;;;;;;;;;;;;;;;;;;2211630;67;2566;-17
2024/02/27 00:13:04;;;;;;;;;;;;;;;;;;2212911;67;1958;-17
2024/02/27 00:15:34;;;;;;;;;;;;;;;;;;2211535;67;2940;-18
2024/02/27 00:18:04;;;;;;;;;;;;;;;;;;2212504;67;2913;-17
2024/02/27 00:20:35;;;;;;;;;;;;;;;;;;2205072;67;1767;-17
2024/02/27 00:23:06;;;;;;;;;;;;;;;;;;2212282;67;1884;-17
2024/02/27 00:25:39;;;;;;;;;;;;;;;;;;2211746;59;1982;-17
2024/02/27 00:28:09;;;;;;;;;;;;;;;;;;2208385;67;1896;-17
2024/02/27 00:30:41;;;;;;;;;;;;;;;;;;2211824;67;2372;-17
2024/02/27 00:33:12;;;;;;;;;;;;;;;;;;2212010;67;2793;-17
2024/02/27 00:35:43;;;;;;;;;;;;;;;;;;2211431;63;2551;-17
2024/02/27 00:38:16;;;;;;;;;;;;;;;;;;2207710;59;2279;-17
2024/02/27 00:40:50;;;;;;;;;;;;;;;;;;2211393;59;2201;-18
2024/02/27 00:43:20;;;;;;;;;;;;;;;;;;2209645;67;3232;-17
2024/02/27 00:45:51;;;;;;;;;;;;;;;;;;2214323;59;2819;-17
2024/02/27 00:48:22;;;;;;;;;;;;;;;;;;2210514;66;2025;-17
2024/02/27 00:50:52;;;;;;;;;;;;;;;;;;2212063;67;2135;-17
2024/02/27 00:53:22;;;;;;;;;;;;;;;;;;2212554;67;1536;-17
2024/02/27 00:55:53;;;;;;;;;;;;;;;;;;2212456;59;1943;-17
2024/02/27 00:58:23;;;;;;;;;;;;;;;;;;2210899;67;1976;-17
2024/02/27 01:00:54;;;;;;;;;;;;;;;;;;2209227;59;1686;-18
2024/02/27 01:03:30;;;;;;;;;;;;;;;;;;2211730;58;2560;-18
2024/02/27 01:06:01;;;;;;;;;;;;;;;;;;2212900;66;2139;-17
2024/02/27 01:08:31;;;;;;;;;;;;;;;;;;2212419;67;2647;-17
2024/02/27 01:11:02;;;;;;;;;;;;;;;;;;2207697;59;1833;-17
2024/02/27 01:13:32;;;;;;;;;;;;;;;;;;2212957;59;1778;-18
2024/02/27 01:16:03;;;;;;;;;;;;;;;;;;2209272;67;2118;-17
2024/02/27 01:18:33;;;;;;;;;;;;;;;;;;2211450;58;2828;-17
2024/02/27 01:21:05;;;;;;;;;;;;;;;;;;2212610;67;2210;-17
2024/02/27 01:23:37;;;;;;;;;;;;;;;;;;2210764;66;2597;-17
2024/02/27 01:26:07;;;;;;;;;;;;;;;;;;2212278;67;2576;-18
2024/02/27 01:28:38;;;;;;;;;;;;;;;;;;2211868;66;1810;-18
2024/02/27 01:31:08;;;;;;;;;;;;;;;;;;2213866;58;2522;-17
2024/02/27 01:33:39;;;;;;;;;;;;;;;;;;2211097;58;3863;-18
2024/02/27 01:36:09;;;;;;;;;;;;;;;;;;2212636;58;2522;-18
2024/02/27 01:38:39;;;;;;;;;;;;;;;;;;2211697;59;2091;-17
2024/02/27 01:41:15;;;;;;;;;;;;;;;;;;2212412;58;2972;-17
2024/02/27 01:43:45;;;;;;;;;;;;;;;;;;2211474;67;2864;-17
2024/02/27 01:46:17;;;;;;;;;;;;;;;;;;2212116;59;1847;-18
2024/02/27 01:48:50;;;;;;;;;;;;;;;;;;2203892;67;1969;-17
2024/02/27 01:51:24;;;;;;;;;;;;;;;;;;2207446;67;2828;-17
2024/02/27 01:53:56;;;;;;;;;;;;;;;;;;2204519;67;2312;-18
2024/02/27 01:56:26;;;;;;;;;;;;;;;;;;2208092;67;2883;-17
2024/02/27 01:58:57;;;;;;;;;;;;;;;;;;2208438;67;1997;-17
2024/02/27 02:01:28;;;;;;;;;;;;;;;;;;2204279;67;1832;-17
2024/02/27 02:04:02;;;;;;;;;;;;;;;;;;2208952;59;1822;-18
2024/02/27 02:06:36;;;;;;;;;;;;;;;;;;2208925;59;1889;-18
2024/02/27 02:09:07;;;;;;;;;;;;;;;;;;2210101;59;2339;-18
2024/02/27 02:11:39;;;;;;;;;;;;;;;;;;2208637;59;2274;-17
2024/02/27 02:14:10;;;;;;;;;;;;;;;;;;2210576;59;1764;-18
2024/02/27 02:16:43;;;;;;;;;;;;;;;;;;2208229;59;2333;-17
2024/02/27 02:19:14;;;;;;;;;;;;;;;;;;2207494;59;3031;-18
2024/02/27 02:21:48;;;;;;;;;;;;;;;;;;2210193;67;2342;-18
2024/02/27 02:24:21;;;;;;;;;;;;;;;;;;2210632;67;1916;-17
2024/02/27 02:26:54;;;;;;;;;;;;;;;;;;2206600;59;2089;-17
2024/02/27 02:29:24;;;;;;;;;;;;;;;;;;2208326;67;2599;-18
2024/02/27 02:31:55;;;;;;;;;;;;;;;;;;2209231;59;1903;-17
2024/02/27 02:34:25;;;;;;;;;;;;;;;;;;2207602;67;2752;-18
2024/02/27 02:36:59;;;;;;;;;;;;;;;;;;2209289;67;2435;-17
2024/02/27 02:39:30;;;;;;;;;;;;;;;;;;2204447;59;2055;-17
2024/02/27 02:42:01;;;;;;;;;;;;;;;;;;2208987;59;1999;-17
2024/02/27 02:44:32;;;;;;;;;;;;;;;;;;2208874;59;1794;-17
2024/02/27 02:47:03;;;;;;;;;;;;;;;;;;2209064;59;2336;-18
2024/02/27 02:49:33;;;;;;;;;;;;;;;;;;2208327;67;2984;-17
2024/02/27 02:52:04;;;;;;;;;;;;;;;;;;2208899;67;2710;-17
2024/02/27 02:54:38;;;;;;;;;;;;;;;;;;2202837;67;2990;-18
2024/02/27 02:57:10;;;;;;;;;;;;;;;;;;2205171;67;3115;-17
2024/02/27 02:59:41;;;;;;;;;;;;;;;;;;2207203;67;2003;-17
2024/02/27 03:02:11;;;;;;;;;;;;;;;;;;2208532;67;1911;-17
2024/02/27 03:04:41;;;;;;;;;;;;;;;;;;2204359;67;1759;-17
2024/02/27 03:07:19;;;;;;;;;;;;;;;;;;2208577;59;2104;-17
2024/02/27 03:09:50;;;;;;;;;;;;;;;;;;2203956;67;3273;-17
2024/02/27 03:12:21;;;;;;;;;;;;;;;;;;2208926;67;2120;-17
2024/02/27 03:14:52;;;;;;;;;;;;;;;;;;2204160;59;2327;-17
2024/02/27 03:17:29;;;;;;;;;;;;;;;;;;2208332;67;1645;-17
2024/02/27 03:19:59;;;;;;;;;;;;;;;;;;2209425;59;2013;-17
2024/02/27 03:22:30;;;;;;;;;;;;;;;;;;2208015;67;1812;-17
2024/02/27 03:25:04;;;;;;;;;;;;;;;;;;2206413;67;1792;-17
2024/02/27 03:27:34;;;;;;;;;;;;;;;;;;2207873;59;2757;-21
2024/02/27 03:30:05;;;;;;;;;;;;;;;;;;2208970;67;2779;-17
2024/02/27 03:32:39;;;;;;;;;;;;;;;;;;2207543;67;2859;-17
2024/02/27 03:35:09;;;;;;;;;;;;;;;;;;2208553;67;1985;-17
2024/02/27 03:37:42;;;;;;;;;;;;;;;;;;2203121;59;1839;-17
2024/02/27 03:40:13;;;;;;;;;;;;;;;;;;2208668;59;1865;-17
2024/02/27 03:42:43;;;;;;;;;;;;;;;;;;2208118;59;1831;-17
2024/02/27 03:45:15;;;;;;;;;;;;;;;;;;2208935;59;1904;-17
2024/02/27 03:47:47;;;;;;;;;;;;;;;;;;2208040;59;2694;-17
2024/02/27 03:50:21;;;;;;;;;;;;;;;;;;2209418;67;1832;-17
2024/02/27 03:52:51;;;;;;;;;;;;;;;;;;2205376;67;3322;-17
2024/02/27 03:55:24;;;;;;;;;;;;;;;;;;2209032;67;1967;-17
2024/02/27 03:57:54;;;;;;;;;;;;;;;;;;2204358;67;2542;-17
2024/02/27 04:00:26;;;;;;;;;;;;;;;;;;2206611;59;1798;-18
2024/02/27 04:02:58;;;;;;;;;;;;;;;;;;2208238;67;2947;-17
2024/02/27 04:05:28;;;;;;;;;;;;;;;;;;2204989;67;1912;-17
2024/02/27 04:07:59;;;;;;;;;;;;;;;;;;2207871;59;2672;-17
2024/02/27 04:10:29;;;;;;;;;;;;;;;;;;2207785;67;3143;-17
2024/02/27 04:13:00;;;;;;;;;;;;;;;;;;2208912;59;2880;-18
2024/02/27 04:15:30;;;;;;;;;;;;;;;;;;2208973;59;2169;-17
2024/02/27 04:18:07;;;;;;;;;;;;;;;;;;2209399;67;1649;-17
2024/02/27 04:20:37;;;;;;;;;;;;;;;;;;2208676;59;2022;-17
2024/02/27 04:23:09;;;;;;;;;;;;;;;;;;2209786;67;1885;-17
2024/02/27 04:25:39;;;;;;;;;;;;;;;;;;2205116;67;2795;-17
2024/02/27 04:28:10;;;;;;;;;;;;;;;;;;2210003;59;2080;-17
2024/02/27 04:30:40;;;;;;;;;;;;;;;;;;2209861;63;1879;-17
2024/02/27 04:33:12;;;;;;;;;;;;;;;;;;2206573;67;2988;-17
2024/02/27 04:35:44;;;;;;;;;;;;;;;;;;2204932;59;2471;-18
2024/02/27 04:38:15;;;;;;;;;;;;;;;;;;2207980;59;2557;-18
2024/02/27 04:40:47;;;;;;;;;;;;;;;;;;2205739;59;1833;-17
2024/02/27 04:43:24;;;;;;;;;;;;;;;;;;2209579;67;1858;-17
2024/02/27 04:45:56;;;;;;;;;;;;;;;;;;2209350;59;2973;-17
2024/02/27 04:48:26;;;;;;;;;;;;;;;;;;2209062;67;2943;-17
2024/02/27 04:50:56;;;;;;;;;;;;;;;;;;2210873;67;2461;-17
2024/02/27 04:53:28;;;;;;;;;;;;;;;;;;2212348;67;2055;-18
2024/02/27 04:55:58;;;;;;;;;;;;;;;;;;2211072;66;2135;-17
2024/02/27 04:58:28;;;;;;;;;;;;;;;;;;2208764;59;2019;-17
2024/02/27 05:00:59;;;;;;;;;;;;;;;;;;2211779;59;2671;-17
2024/02/27 05:03:29;;;;;;;;;;;;;;;;;;2212271;67;1794;-17
2024/02/27 05:05:59;;;;;;;;;;;;;;;;;;2211520;67;1884;-17
2024/02/27 05:08:30;;;;;;;;;;;;;;;;;;2212476;67;3289;-18
2024/02/27 05:11:00;;;;;;;;;;;;;;;;;;2210294;66;2433;-17
2024/02/27 05:13:31;;;;;;;;;;;;;;;;;;2212993;59;2478;-17
2024/02/27 05:16:01;;;;;;;;;;;;;;;;;;2211324;67;2036;-17
2024/02/27 05:18:31;;;;;;;;;;;;;;;;;;2212806;67;2018;-17
2024/02/27 05:21:05;;;;;;;;;;;;;;;;;;2211268;67;2759;-17
2024/02/27 05:23:39;;;;;;;;;;;;;;;;;;2209618;67;2766;-18
2024/02/27 05:26:09;;;;;;;;;;;;;;;;;;2213985;66;1864;-17
2024/02/27 05:28:40;;;;;;;;;;;;;;;;;;2211707;59;2168;-17
2024/02/27 05:31:22;;;;;;;;;;;;;;;;;;2213746;59;1822;-17
2024/02/27 05:33:54;;;;;;;;;;;;;;;;;;2213452;67;1927;-17
2024/02/27 05:36:28;;;;;;;;;;;;;;;;;;2200653;67;2759;-18
2024/02/27 05:39:01;;;;;;;;;;;;;;;;;;2212175;59;1984;-17
2024/02/27 05:41:31;;;;;;;;;;;;;;;;;;2211010;64;2664;-18
2024/02/27 05:44:03;;;;;;;;;;;;;;;;;;2213287;67;3103;-17
2024/02/27 05:46:33;;;;;;;;;;;;;;;;;;2213936;58;1972;-18
2024/02/27 05:49:09;;;;;;;;;;;;;;;;;;2205783;59;2585;-17
2024/02/27 05:51:41;;;;;;;;;;;;;;;;;;2205543;59;2292;-17
2024/02/27 05:54:12;;;;;;;;;;;;;;;;;;2208819;67;1743;-17
2024/02/27 05:56:42;;;;;;;;;;;;;;;;;;2209402;67;2645;-17
2024/02/27 05:59:15;;;;;;;;;;;;;;;;;;2206712;67;2027;-20
2024/02/27 06:01:47;;;;;;;;;;;;;;;;;;2209439;59;1860;-23
2024/02/27 06:04:18;;;;;;;;;;;;;;;;;;2209589;67;2457;-20
2024/02/27 06:06:48;;;;;;;;;;;;;;;;;;2204473;67;2255;-17
2024/02/27 06:09:19;;;;;;;;;;;;;;;;;;2206491;67;1842;-17
2024/02/27 06:11:49;;;;;;;;;;;;;;;;;;2209042;67;2153;-17
2024/02/27 06:14:20;;;;;;;;;;;;;;;;;;2209759;59;2247;-18
2024/02/27 06:16:51;;;;;;;;;;;;;;;;;;2208904;67;2087;-18
2024/02/27 06:19:26;;;;;;;;;;;;;;;;;;2210006;59;2326;-17
2024/02/27 06:22:15;;;;;;;;;;;;;;;;;;2208874;67;2189;-17
2024/02/27 06:24:46;;;;;;;;;;;;;;;;;;2208534;67;2744;-17
2024/02/27 06:27:16;;;;;;;;;;;;;;;;;;2208918;67;1864;-17
2024/02/27 06:29:49;;;;;;;;;;;;;;;;;;2209086;67;2299;-17
2024/02/27 06:32:20;;;;;;;;;;;;;;;;;;2209633;67;1735;-17
2024/02/27 06:34:50;;;;;;;;;;;;;;;;;;2205438;67;2296;-17
2024/02/27 06:37:20;;;;;;;;;;;;;;;;;;2208720;67;2011;-17
2024/02/27 06:39:54;;;;;;;;;;;;;;;;;;2208046;59;2078;-17
2024/02/27 06:42:25;;;;;;;;;;;;;;;;;;2208968;67;1816;-17
2024/02/27 06:44:55;;;;;;;;;;;;;;;;;;2208239;59;2823;-17
2024/02/27 06:47:25;;;;;;;;;;;;;;;;;;2209800;67;2257;-18
2024/02/27 06:49:58;;;;;;;;;;;;;;;;;;2208517;67;1878;-18
2024/02/27 06:52:32;;;;;;;;;;;;;;;;;;2206051;67;2395;-18
2024/02/27 06:55:03;;;;;;;;;;;;;;;;;;2208586;59;2212;-17
2024/02/27 06:57:34;;;;;;;;;;;;;;;;;;2210930;67;1854;-17
2024/02/27 07:00:05;;;;;;;;;;;;;;;;;;2204403;67;2479;-17
2024/02/27 07:02:35;;;;;;;;;;;;;;;;;;2205842;67;2752;-17
2024/02/27 07:05:06;;;;;;;;;;;;;;;;;;2209439;67;2415;-18
2024/02/27 07:07:36;;;;;;;;;;;;;;;;;;2204230;67;2412;-17
2024/02/27 07:10:06;;;;;;;;;;;;;;;;;;2207995;67;1932;-17
2024/02/27 07:12:37;;;;;;;;;;;;;;;;;;2210917;59;2405;-18
2024/02/27 07:15:08;;;;;;;;;;;;;;;;;;2206238;59;1904;-18
2024/02/27 07:17:38;;;;;;;;;;;;;;;;;;2209815;59;2636;-18
2024/02/27 07:20:09;;;;;;;;;;;;;;;;;;2205899;59;2309;-18
2024/02/27 07:22:41;;;;;;;;;;;;;;;;;;2210260;59;2246;-18
2024/02/27 07:25:14;;;;;;;;;;;;;;;;;;2209334;59;2026;-17
2024/02/27 07:27:48;;;;;;;;;;;;;;;;;;2208664;59;2540;-17
2024/02/27 07:30:21;;;;;;;;;;;;;;;;;;2210258;67;2113;-18
2024/02/27 07:32:51;;;;;;;;;;;;;;;;;;2208855;67;2100;-18
2024/02/27 07:35:22;;;;;;;;;;;;;;;;;;2209773;59;1960;-18
2024/02/27 07:37:55;;;;;;;;;;;;;;;;;;2208666;59;2882;-17
2024/02/27 07:40:25;;;;;;;;;;;;;;;;;;2206742;59;2712;-17
2024/02/27 07:42:55;;;;;;;;;;;;;;;;;;2206784;67;2328;-17
2024/02/27 07:45:26;;;;;;;;;;;;;;;;;;2205780;59;2185;-17
2024/02/27 07:47:56;;;;;;;;;;;;;;;;;;2202601;59;2105;-18
2024/02/27 07:50:27;;;;;;;;;;;;;;;;;;2212501;67;1929;-18
2024/02/27 07:52:58;;;;;;;;;;;;;;;;;;2211625;59;2206;-18
2024/02/27 07:55:32;;;;;;;;;;;;;;;;;;2213293;58;2307;-18
2024/02/27 07:58:02;;;;;;;;;;;;;;;;;;2211028;58;2819;-17
2024/02/27 08:00:32;;;;;;;;;;;;;;;;;;2211944;58;2328;-17
2024/02/27 08:03:05;;;;;;;;;;;;;;;;;;2208143;59;2172;-18
2024/02/27 08:05:56;;;;;;;;;;;;;;;;;;2212091;66;1923;-18
2024/02/27 08:08:28;;;;;;;;;;;;;;;;;;2208904;67;2213;-18
2024/02/27 08:10:59;;;;;;;;;;;;;;;;;;2210195;67;2277;-18
2024/02/27 08:13:30;;;;;;;;;;;;;;;;;;2212036;58;2417;-17
2024/02/27 08:16:01;;;;;;;;;;;;;;;;;;2210109;67;2580;-18
2024/02/27 08:18:34;;;;;;;;;;;;;;;;;;2211729;59;2643;-18
2024/02/27 08:21:04;;;;;;;;;;;;;;;;;;2208620;59;2336;-18
2024/02/27 08:23:35;;;;;;;;;;;;;;;;;;2208085;59;1605;-18
2024/02/27 08:26:06;;;;;;;;;;;;;;;;;;2210139;59;2504;-18
2024/02/27 08:28:38;;;;;;;;;;;;;;;;;;2207375;67;2854;-17
2024/02/27 08:31:08;;;;;;;;;;;;;;;;;;2208369;59;2534;-18
2024/02/27 08:33:39;;;;;;;;;;;;;;;;;;2208642;67;2704;-18
2024/02/27 08:36:09;;;;;;;;;;;;;;;;;;2207509;67;2142;-18
2024/02/27 08:38:43;;;;;;;;;;;;;;;;;;2208452;59;2596;-20
2024/02/27 08:41:14;;;;;;;;;;;;;;;;;;2204514;59;2244;-20
2024/02/27 08:43:44;;;;;;;;;;;;;;;;;;2210983;67;2679;-20
2024/02/27 08:46:16;;;;;;;;;;;;;;;;;;2209629;59;2717;-20
2024/02/27 08:48:49;;;;;;;;;;;;;;;;;;2211287;59;1933;-20
2024/02/27 08:51:20;;;;;;;;;;;;;;;;;;2210159;67;2297;-20
2024/02/27 08:53:50;;;;;;;;;;;;;;;;;;2211061;59;2871;-20
2024/02/27 08:56:21;;;;;;;;;;;;;;;;;;2210481;67;2398;-20
2024/02/27 08:58:52;;;;;;;;;;;;;;;;;;2207989;59;2443;-20
2024/02/27 09:01:22;;;;;;;;;;;;;;;;;;2209084;67;2432;-20
2024/02/27 09:03:53;;;;;;;;;;;;;;;;;;2208053;67;2633;-20
2024/02/27 09:06:26;;;;;;;;;;;;;;;;;;2207589;59;1963;-20
2024/02/27 09:08:56;;;;;;;;;;;;;;;;;;2204522;67;2342;-20
2024/02/27 09:11:27;;;;;;;;;;;;;;;;;;2212481;67;1904;-20
2024/02/27 09:13:57;;;;;;;;;;;;;;;;;;2207989;58;3441;-20
2024/02/27 09:16:28;;;;;;;;;;;;;;;;;;2211701;58;2023;-20
2024/02/27 09:18:59;;;;;;;;;;;;;;;;;;2211167;67;1933;-20
2024/02/27 09:21:30;;;;;;;;;;;;;;;;;;2211322;58;2297;-20
2024/02/27 09:24:01;;;;;;;;;;;;;;;;;;2211830;67;2679;-20
2024/02/27 09:26:31;;;;;;;;;;;;;;;;;;2209687;58;3398;-20
2024/02/27 09:29:02;;;;;;;;;;;;;;;;;;2207821;59;3428;-20
2024/02/27 09:31:32;;;;;;;;;;;;;;;;;;2213295;58;2703;-20
2024/02/27 09:34:03;;;;;;;;;;;;;;;;;;2212384;58;2848;-20
2024/02/27 09:36:33;;;;;;;;;;;;;;;;;;2212726;59;2514;-20
2024/02/27 09:39:04;;;;;;;;;;;;;;;;;;2206781;59;2415;-21
2024/02/27 09:41:44;;;;;;;;;;;;;;;;;;2211990;59;2335;-20
2024/02/27 09:44:16;;;;;;;;;;;;;;;;;;2206841;59;3230;-20
2024/02/27 09:46:48;;;;;;;;;;;;;;;;;;2212007;59;2663;-20
2024/02/27 09:49:19;;;;;;;;;;;;;;;;;;2206300;53;2492;-23
2024/02/27 09:51:52;;;;;;;;;;;;;;;;;;2195934;59;2005;-23
2024/02/27 09:54:23;;;;;;;;;;;;;;;;;;2200504;59;2189;-23
2024/02/27 09:56:56;;;;;;;;;;;;;;;;;;2204250;59;1997;-23
2024/02/27 09:59:26;;;;;;;;;;;;;;;;;;2204019;67;2636;-23
2024/02/27 10:02:01;;;;;;;;;;;;;;;;;;2206548;59;2801;-23
2024/02/27 10:04:32;;;;;;;;;;;;;;;;;;2207540;59;2390;-23
2024/02/27 10:07:10;;;;;;;;;;;;;;;;;;2207815;59;2568;-23
2024/02/27 10:09:45;;;;;;;;;;;;;;;;;;2208294;59;1850;-23
2024/02/27 10:12:17;;;;;;;;;;;;;;;;;;2207694;59;2069;-23
2024/02/27 10:14:47;;;;;;;;;;;;;;;;;;2208534;59;2453;-23
2024/02/27 10:17:21;;;;;;;;;;;;;;;;;;2206491;59;2211;-23
2024/02/27 10:19:54;;;;;;;;;;;;;;;;;;2206763;59;2505;-23
2024/02/27 10:22:24;;;;;;;;;;;;;;;;;;2202071;67;1968;-23
2024/02/27 10:25:15;;;;;;;;;;;;;;;;;;2198889;59;2823;-23
2024/02/27 10:27:45;;;;;;;;;;;;;;;;;;2198282;67;2052;-23
2024/02/27 10:30:19;;;;;;;;;;;;;;;;;;2200130;67;2086;-23
2024/02/27 10:32:53;;;;;;;;;;;;;;;;;;2202246;67;1944;-23
2024/02/27 10:35:26;;;;;;;;;;;;;;;;;;2201092;67;2423;-23
2024/02/27 10:37:57;;;;;;;;;;;;;;;;;;2203005;59;2012;-23
2024/02/27 10:40:32;;;;;;;;;;;;;;;;;;2201838;59;2824;-23
2024/02/27 10:43:02;;;;;;;;;;;;;;;;;;2200654;59;2444;-23
2024/02/27 10:45:34;;;;;;;;;;;;;;;;;;2200604;59;2908;-23
2024/02/27 10:48:05;;;;;;;;;;;;;;;;;;2201699;59;3135;-23
2024/02/27 10:50:37;;;;;;;;;;;;;;;;;;2202635;59;2341;-23
2024/02/27 10:53:10;;;;;;;;;;;;;;;;;;2201820;59;2450;-23
2024/02/27 10:55:41;;;;;;;;;;;;;;;;;;2202732;67;2004;-23
2024/02/27 10:58:12;;;;;;;;;;;;;;;;;;2201618;67;2157;-23
2024/02/27 11:00:42;;;;;;;;;;;;;;;;;;2203170;67;2689;-23
2024/02/27 11:03:13;;;;;;;;;;;;;;;;;;2198015;67;1769;-23
2024/02/27 11:05:46;;;;;;;;;;;;;;;;;;2198949;59;2146;-23
2024/02/27 11:08:19;;;;;;;;;;;;;;;;;;2199148;67;1825;-23
2024/02/27 11:10:49;;;;;;;;;;;;;;;;;;2198319;67;2469;-23
2024/02/27 11:13:21;;;;;;;;;;;;;;;;;;2202391;59;2332;-23
2024/02/27 11:15:53;;;;;;;;;;;;;;;;;;2199574;59;2654;-23
2024/02/27 11:18:27;;;;;;;;;;;;;;;;;;2201909;59;1981;-23
2024/02/27 11:21:00;;;;;;;;;;;;;;;;;;2199720;59;2004;-23
2024/02/27 11:23:31;;;;;;;;;;;;;;;;;;2203833;59;3601;-23
2024/02/27 11:26:01;;;;;;;;;;;;;;;;;;2204047;59;2539;-23
2024/02/27 11:28:32;;;;;;;;;;;;;;;;;;2199042;59;1864;-23
2024/02/27 11:31:03;;;;;;;;;;;;;;;;;;2197492;67;1930;-23
2024/02/27 11:33:53;;;;;;;;;;;;;;;;;;2204011;59;1986;-23
2024/02/27 11:36:25;;;;;;;;;;;;;;;;;;2203016;67;2011;-23
2024/02/27 11:39:02;;;;;;;;;;;;;;;;;;2203643;59;2991;-23
2024/02/27 11:41:38;;;;;;;;;;;;;;;;;;2202768;59;3173;-23
2024/02/27 11:44:10;;;;;;;;;;;;;;;;;;2203383;67;1970;-23
2024/02/27 11:46:43;;;;;;;;;;;;;;;;;;2204463;59;2451;-23
2024/02/27 11:49:33;;;;;;;;;;;;;;;;;;2197799;59;1903;-23
2024/02/27 11:52:04;;;;;;;;;;;;;;;;;;2199219;67;2153;-23
2024/02/27 11:54:35;;;;;;;;;;;;;;;;;;2196730;67;2913;-23
2024/02/27 11:57:07;;;;;;;;;;;;;;;;;;2198742;67;2508;-23
2024/02/27 11:59:37;;;;;;;;;;;;;;;;;;2196599;60;1777;-23
2024/02/27 12:02:17;;;;;;;;;;;;;;;;;;2198423;67;2282;-23
2024/02/27 12:04:47;;;;;;;;;;;;;;;;;;2199385;67;1993;-23
2024/02/27 12:07:28;;;;;;;;;;;;;;;;;;2196961;59;4984;-23
2024/02/27 12:10:14;;;;;;;;;;;;;;;;;;2199615;67;2553;-23
2024/02/27 12:12:45;;;;;;;;;;;;;;;;;;2199558;67;2737;-23
2024/02/27 12:15:18;;;;;;;;;;;;;;;;;;2199431;59;1947;-23
2024/02/27 12:17:49;;;;;;;;;;;;;;;;;;2199530;67;2005;-23
2024/02/27 12:20:19;;;;;;;;;;;;;;;;;;2194856;67;2383;-23
2024/02/27 12:23:13;;;;;;;;;;;;;;;;;;2197128;67;1793;-23
2024/02/27 12:25:44;;;;;;;;;;;;;;;;;;2200156;67;2080;-23
2024/02/27 12:28:19;;;;;;;;;;;;;;;;;;2196463;67;2148;-23
2024/02/27 12:30:52;;;;;;;;;;;;;;;;;;2200799;67;3268;-23
2024/02/27 12:33:24;;;;;;;;;;;;;;;;;;2199524;59;1935;-23
2024/02/27 12:35:54;;;;;;;;;;;;;;;;;;2200397;67;1953;-23
2024/02/27 12:38:33;;;;;;;;;;;;;;;;;;2199181;59;2421;-22
2024/02/27 12:41:04;;;;;;;;;;;;;;;;;;2200993;59;2022;-23
2024/02/27 12:43:36;;;;;;;;;;;;;;;;;;2200486;67;1124;-23
2024/02/27 12:46:06;;;;;;;;;;;;;;;;;;2201044;59;1415;-23
2024/02/27 12:48:37;;;;;;;;;;;;;;;;;;2200422;67;2054;-23
2024/02/27 12:51:07;;;;;;;;;;;;;;;;;;2200432;59;2023;-23
2024/02/27 12:53:37;;;;;;;;;;;;;;;;;;2197910;67;2660;-23
2024/02/27 12:56:10;;;;;;;;;;;;;;;;;;2203821;67;2149;-23
2024/02/27 12:58:40;;;;;;;;;;;;;;;;;;2200625;59;2219;-23
2024/02/27 13:01:11;;;;;;;;;;;;;;;;;;2202999;59;2270;-23
2024/02/27 13:03:44;;;;;;;;;;;;;;;;;;2201572;59;3595;-23
2024/02/27 13:06:15;;;;;;;;;;;;;;;;;;2202472;59;1682;-23
2024/02/27 13:08:48;;;;;;;;;;;;;;;;;;2198572;59;2447;-23
2024/02/27 13:11:21;;;;;;;;;;;;;;;;;;2199074;67;2596;-23
2024/02/27 13:13:51;;;;;;;;;;;;;;;;;;2201098;59;1721;-23
2024/02/27 13:16:27;;;;;;;;;;;;;;;;;;2201626;67;1945;-23
2024/02/27 13:18:57;;;;;;;;;;;;;;;;;;2203386;67;1534;-23
2024/02/27 13:21:30;;;;;;;;;;;;;;;;;;2199486;59;1511;-23
2024/02/27 13:24:02;;;;;;;;;;;;;;;;;;2203974;67;2138;-23
2024/02/27 13:26:33;;;;;;;;;;;;;;;;;;2202018;59;2329;-23
2024/02/27 13:29:03;;;;;;;;;;;;;;;;;;2203398;67;1746;-23
2024/02/27 13:31:33;;;;;;;;;;;;;;;;;;2195881;59;2683;-23
2024/02/27 13:34:03;;;;;;;;;;;;;;;;;;2201729;67;1569;-23
2024/02/27 13:36:34;;;;;;;;;;;;;;;;;;2201838;67;1924;-23
2024/02/27 13:39:05;;;;;;;;;;;;;;;;;;2199973;59;2196;-23
2024/02/27 13:41:37;;;;;;;;;;;;;;;;;;2202908;59;1932;-23
2024/02/27 13:44:17;;;;;;;;;;;;;;;;;;2203220;67;1553;-23
2024/02/27 13:46:48;;;;;;;;;;;;;;;;;;2203416;59;2270;-23
2024/02/27 13:49:22;;;;;;;;;;;;;;;;;;2203631;59;1626;-23
2024/02/27 13:51:53;;;;;;;;;;;;;;;;;;2204351;67;1524;-23
2024/02/27 13:54:23;;;;;;;;;;;;;;;;;;2203969;67;1640;-23
2024/02/27 13:56:53;;;;;;;;;;;;;;;;;;2204058;67;1988;-23
2024/02/27 13:59:24;;;;;;;;;;;;;;;;;;2197654;67;1461;-23
2024/02/27 14:01:55;;;;;;;;;;;;;;;;;;2203544;67;1545;-23
2024/02/27 14:04:25;;;;;;;;;;;;;;;;;;2202731;59;2387;-23
2024/02/27 14:07:01;;;;;;;;;;;;;;;;;;2202348;67;2180;-23
2024/02/27 14:09:31;;;;;;;;;;;;;;;;;;2202426;67;1634;-23
2024/02/27 14:12:01;;;;;;;;;;;;;;;;;;2197757;59;1633;-23
2024/02/27 14:14:37;;;;;;;;;;;;;;;;;;2203196;59;1607;-23
2024/02/27 14:17:07;;;;;;;;;;;;;;;;;;2200225;67;2007;-23
2024/02/27 14:19:37;;;;;;;;;;;;;;;;;;2203054;67;1475;-23
2024/02/27 14:22:09;;;;;;;;;;;;;;;;;;2203743;67;1568;-23
2024/02/27 14:24:39;;;;;;;;;;;;;;;;;;2203646;59;1599;-23
2024/02/27 14:27:10;;;;;;;;;;;;;;;;;;2203664;67;1485;-23
2024/02/27 14:29:40;;;;;;;;;;;;;;;;;;2200421;67;1592;-23
2024/02/27 14:32:16;;;;;;;;;;;;;;;;;;2199994;59;1803;-23
2024/02/27 14:34:47;;;;;;;;;;;;;;;;;;2201384;59;1453;-23
2024/02/27 14:37:17;;;;;;;;;;;;;;;;;;2204841;59;2262;-23
2024/02/27 14:39:47;;;;;;;;;;;;;;;;;;2204674;59;1936;-23
2024/02/27 14:42:18;;;;;;;;;;;;;;;;;;2203942;59;1414;-23
2024/02/27 14:44:48;;;;;;;;;;;;;;;;;;2204895;59;1495;-23
2024/02/27 14:47:19;;;;;;;;;;;;;;;;;;2204774;67;1226;-23
2024/02/27 14:49:49;;;;;;;;;;;;;;;;;;2205039;59;2199;-22
2024/02/27 14:52:19;;;;;;;;;;;;;;;;;;2200584;67;1296;-23
2024/02/27 14:55:02;;;;;;;;;;;;;;;;;;2204762;67;1652;-23
2024/02/27 14:57:36;;;;;;;;;;;;;;;;;;2204099;67;1792;-22
2024/02/27 15:00:07;;;;;;;;;;;;;;;;;;2203565;67;2401;-22
2024/02/27 15:02:38;;;;;;;;;;;;;;;;;;2203982;67;1515;-23
2024/02/27 15:05:09;;;;;;;;;;;;;;;;;;2204810;67;1644;-22
2024/02/27 15:07:39;;;;;;;;;;;;;;;;;;2204360;59;1667;-22
2024/02/27 15:10:10;;;;;;;;;;;;;;;;;;2204596;67;1573;-22
2024/02/27 15:12:40;;;;;;;;;;;;;;;;;;2201190;67;1288;-23
2024/02/27 15:15:11;;;;;;;;;;;;;;;;;;2204843;59;1943;-23
2024/02/27 15:17:43;;;;;;;;;;;;;;;;;;2199709;67;2041;-23
2024/02/27 15:20:13;;;;;;;;;;;;;;;;;;2201611;59;2336;-22
2024/02/27 15:22:43;;;;;;;;;;;;;;;;;;2200602;59;2670;-23
2024/02/27 15:25:16;;;;;;;;;;;;;;;;;;2202909;59;2280;-23
2024/02/27 15:27:46;;;;;;;;;;;;;;;;;;2199744;59;2252;-23
2024/02/27 15:30:20;;;;;;;;;;;;;;;;;;2200324;59;2297;-22
2024/02/27 15:32:50;;;;;;;;;;;;;;;;;;2203096;59;2155;-22
2024/02/27 15:35:20;;;;;;;;;;;;;;;;;;2202887;59;2101;-23
2024/02/27 15:37:51;;;;;;;;;;;;;;;;;;2204699;59;2235;-23
2024/02/27 15:40:21;;;;;;;;;;;;;;;;;;2202815;59;2000;-23
2024/02/27 15:42:53;;;;;;;;;;;;;;;;;;2204641;67;1631;-22
2024/02/27 15:45:23;;;;;;;;;;;;;;;;;;2204474;59;2188;-22
2024/02/27 15:47:55;;;;;;;;;;;;;;;;;;2201272;67;1365;-22
2024/02/27 15:50:25;;;;;;;;;;;;;;;;;;2199610;59;2016;-22
2024/02/27 15:52:55;;;;;;;;;;;;;;;;;;2211817;53;2269;-23
2024/02/27 15:55:25;;;;;;;;;;;;;;;;;;2208176;59;1939;-23
2024/02/27 15:57:56;;;;;;;;;;;;;;;;;;2209208;58;1660;-23
2024/02/27 16:00:26;;;;;;;;;;;;;;;;;;2204417;59;2463;-23
2024/02/27 16:03:01;;;;;;;;;;;;;;;;;;2209250;58;2229;-23
2024/02/27 16:05:32;;;;;;;;;;;;;;;;;;2206750;59;1883;-23
2024/02/27 16:08:03;;;;;;;;;;;;;;;;;;2210013;59;1913;-23
2024/02/27 16:10:33;;;;;;;;;;;;;;;;;;2205265;59;2329;-23
2024/02/27 16:13:03;;;;;;;;;;;;;;;;;;2209384;59;2113;-23
2024/02/27 16:15:37;;;;;;;;;;;;;;;;;;2208883;59;1936;-23
2024/02/27 16:18:07;;;;;;;;;;;;;;;;;;2208813;59;2111;-23
2024/02/27 16:20:37;;;;;;;;;;;;;;;;;;2205954;67;1747;-23
2024/02/27 16:23:08;;;;;;;;;;;;;;;;;;2206210;59;2190;-23
2024/02/27 16:25:38;;;;;;;;;;;;;;;;;;2206004;59;2656;-23
2024/02/27 16:28:08;;;;;;;;;;;;;;;;;;2206322;58;2199;-23
2024/02/27 16:30:40;;;;;;;;;;;;;;;;;;2198675;67;2411;-23
2024/02/27 16:33:11;;;;;;;;;;;;;;;;;;2205661;59;2198;-23
2024/02/27 16:35:42;;;;;;;;;;;;;;;;;;2205836;59;2160;-24
2024/02/27 16:38:13;;;;;;;;;;;;;;;;;;2204058;67;2186;-23
2024/02/27 16:40:44;;;;;;;;;;;;;;;;;;2202761;59;1895;-23
2024/02/27 16:43:14;;;;;;;;;;;;;;;;;;2200900;59;2683;-23
2024/02/27 16:45:48;;;;;;;;;;;;;;;;;;2198251;59;2105;-23
2024/02/27 16:48:19;;;;;;;;;;;;;;;;;;2206872;59;2669;-24
2024/02/27 16:50:49;;;;;;;;;;;;;;;;;;2204468;59;2559;-24
2024/02/27 16:53:21;;;;;;;;;;;;;;;;;;2207504;59;2778;-24
2024/02/27 16:55:51;;;;;;;;;;;;;;;;;;2207556;59;2388;-24
2024/02/27 16:58:23;;;;;;;;;;;;;;;;;;2207516;59;2749;-24
2024/02/27 17:00:53;;;;;;;;;;;;;;;;;;2202821;59;3445;-24
2024/02/27 17:03:25;;;;;;;;;;;;;;;;;;2204328;59;3422;-24
2024/02/27 17:06:00;;;;;;;;;;;;;;;;;;2201677;59;4446;-24
2024/02/27 17:08:30;;;;;;;;;;;;;;;;;;2201143;59;4136;-24
2024/02/27 17:11:01;;;;;;;;;;;;;;;;;;2211927;58;2087;-23
2024/02/27 17:13:31;;;;;;;;;;;;;;;;;;2204212;58;2279;-23
2024/02/27 17:16:02;;;;;;;;;;;;;;;;;;2209877;58;2501;-23
2024/02/27 17:18:32;;;;;;;;;;;;;;;;;;2208516;58;2123;-24
2024/02/27 17:21:03;;;;;;;;;;;;;;;;;;2209337;66;1524;-23
2024/02/27 17:23:33;;;;;;;;;;;;;;;;;;2209253;58;1994;-23
2024/02/27 17:26:04;;;;;;;;;;;;;;;;;;2206645;66;1494;-23
2024/02/27 17:28:38;;;;;;;;;;;;;;;;;;2208557;58;2119;-23
2024/02/27 17:31:09;;;;;;;;;;;;;;;;;;2210027;66;1345;-23
2024/02/27 17:33:40;;;;;;;;;;;;;;;;;;2205757;66;1262;-26